createdAt,value
2019-05-11T00:02:14.034Z,10.70
2019-05-11T00:04:44.387Z,12.30
2019-05-11T00:07:14.118Z,13.57
2019-05-11T00:09:57.708Z,10.98
2019-05-11T00:12:16.425Z,22.40
2019-05-11T00:14:46.823Z,21.65
2019-05-11T00:17:16.552Z,19.20
2019-05-11T00:19:46.823Z,23.10
2019-05-11T00:22:17.156Z,21.03
2019-05-11T00:24:47.576Z,17.80
2019-05-11T00:27:17.300Z,12.47
2019-05-11T00:29:47.593Z,17.53
2019-05-11T00:32:17.954Z,13.13
2019-05-11T00:34:48.271Z,14.17
2019-05-11T00:37:18.625Z,11.97
2019-05-11T00:39:48.401Z,10.63
2019-05-11T00:42:18.631Z,11.60
2019-05-11T00:44:49.115Z,10.90
2019-05-11T00:47:20.335Z,8.97
2019-05-11T00:49:50.033Z,8.27
2019-05-11T00:52:20.288Z,8.67
2019-05-11T00:54:50.707Z,6.57
2019-05-11T00:57:21.055Z,7.17
2019-05-11T00:59:51.464Z,7.13
2019-05-11T01:02:21.893Z,13.33
2019-05-11T01:04:52.246Z,13.17
2019-05-11T01:07:22.024Z,9.23
2019-05-11T01:09:51.600Z,8.93
2019-05-11T01:12:21.912Z,13.83
2019-05-11T01:14:52.276Z,9.50
2019-05-11T01:17:22.010Z,14.10
2019-05-11T01:19:51.606Z,15.00
2019-05-11T01:22:21.936Z,14.40
2019-05-11T01:24:52.331Z,15.07
2019-05-11T01:27:22.033Z,11.23
2019-05-11T01:29:52.432Z,20.50
2019-05-11T01:32:22.131Z,14.90
2019-05-11T01:34:52.447Z,21.20
2019-05-11T01:37:22.779Z,15.00
2019-05-11T01:39:53.152Z,22.53
2019-05-11T01:42:23.543Z,18.37
2019-05-11T01:44:53.973Z,20.00
2019-05-11T01:47:24.809Z,20.87
2019-05-11T01:49:54.512Z,18.00
2019-05-11T01:52:24.127Z,21.27
2019-05-11T01:54:54.344Z,19.00
2019-05-11T01:57:24.072Z,26.45
2019-05-11T01:59:53.742Z,25.47
2019-05-11T02:02:24.043Z,25.63
2019-05-11T02:05:13.292Z,23.03
2019-05-11T02:07:43.672Z,19.77
2019-05-11T02:10:13.506Z,19.13
2019-05-11T02:12:43.781Z,18.17
2019-05-11T02:15:14.126Z,23.93
2019-05-11T02:17:44.482Z,20.27
2019-05-11T02:20:15.271Z,21.67
2019-05-11T02:22:45.643Z,20.47
2019-05-11T02:25:15.669Z,26.97
2019-05-11T02:27:45.190Z,26.07
2019-05-11T02:30:15.188Z,33.73
2019-05-11T02:32:45.480Z,15.13
2019-05-11T02:35:15.359Z,18.37
2019-05-11T02:37:45.683Z,15.50
2019-05-11T02:40:15.478Z,19.20
2019-05-11T02:42:45.697Z,15.53
2019-05-11T02:45:15.685Z,17.03
2019-05-11T02:47:45.926Z,15.80
2019-05-11T02:50:15.615Z,14.43
2019-05-11T02:52:46.790Z,15.67
2019-05-11T02:55:16.519Z,13.50
2019-05-11T02:57:46.788Z,9.27
2019-05-11T03:00:17.930Z,11.90
2019-05-11T03:02:48.195Z,10.00
2019-05-11T03:05:18.562Z,12.80
2019-05-11T03:07:48.941Z,15.20
2019-05-11T03:10:19.849Z,15.40
2019-05-11T03:12:50.345Z,18.20
2019-05-11T03:15:20.710Z,19.93
2019-05-11T03:17:51.067Z,17.97
2019-05-11T03:20:21.433Z,12.90
2019-05-11T03:22:51.173Z,16.00
2019-05-11T03:25:21.463Z,16.87
2019-05-11T03:27:51.830Z,15.00
2019-05-11T03:30:22.209Z,13.57
2019-05-11T03:32:52.610Z,23.87
2019-05-11T03:35:22.291Z,19.90
2019-05-11T03:37:51.963Z,14.70
2019-05-11T03:40:21.553Z,17.17
2019-05-11T03:42:51.828Z,13.53
2019-05-11T03:45:21.582Z,17.77
2019-05-11T03:47:51.886Z,17.77
2019-05-11T03:50:22.271Z,13.80
2019-05-11T03:52:52.624Z,15.00
2019-05-11T03:55:22.986Z,16.33
2019-05-11T03:57:53.352Z,18.23
2019-05-11T04:00:24.150Z,15.87
2019-05-11T04:02:54.528Z,13.17
2019-05-11T04:05:24.941Z,15.80
2019-05-11T04:07:55.298Z,15.20
2019-05-11T04:10:25.914Z,17.63
2019-05-11T04:12:56.399Z,18.83
2019-05-11T04:15:26.817Z,20.17
2019-05-11T04:17:57.337Z,24.90
2019-05-11T04:20:27.770Z,17.63
2019-05-11T04:22:57.471Z,20.07
2019-05-11T04:25:27.759Z,17.77
2019-05-11T04:27:58.126Z,21.30
2019-05-11T04:30:27.823Z,17.50
2019-05-11T04:32:58.100Z,21.93
2019-05-11T04:35:27.815Z,21.27
2019-05-11T04:37:58.072Z,18.87
2019-05-11T04:40:28.442Z,20.17
2019-05-11T04:42:58.828Z,21.93
2019-05-11T04:45:28.541Z,22.80
2019-05-11T04:47:58.838Z,21.40
2019-05-11T04:50:28.570Z,19.77
2019-05-11T04:52:58.176Z,19.90
2019-05-11T04:55:28.448Z,17.93
2019-05-11T04:57:58.134Z,19.80
2019-05-11T05:00:28.399Z,17.00
2019-05-11T05:02:58.133Z,20.57
2019-05-11T05:05:28.393Z,18.03
2019-05-11T05:08:09.342Z,16.17
2019-05-11T05:10:29.965Z,22.43
2019-05-11T05:13:10.275Z,17.87
2019-05-11T05:15:31.643Z,16.27
2019-05-11T05:18:01.332Z,20.83
2019-05-11T05:20:31.613Z,15.57
2019-05-11T05:23:02.051Z,18.53
2019-05-11T05:25:32.441Z,16.93
2019-05-11T05:28:02.807Z,17.67
2019-05-11T05:30:33.207Z,21.47
2019-05-11T05:33:03.588Z,22.40
2019-05-11T05:35:34.159Z,19.23
2019-05-11T05:38:04.683Z,19.93
2019-05-11T05:40:35.021Z,16.23
2019-05-11T05:43:05.419Z,18.60
2019-05-11T05:45:35.763Z,20.60
2019-05-11T05:48:05.522Z,16.63
2019-05-11T05:50:35.245Z,16.73
2019-05-11T05:53:05.545Z,21.27
2019-05-11T05:55:35.920Z,20.37
2019-05-11T05:58:06.305Z,21.17
2019-05-11T06:00:36.672Z,22.77
2019-05-11T06:03:07.081Z,21.47
2019-05-11T06:05:37.479Z,19.77
2019-05-11T06:08:07.849Z,22.57
2019-05-11T06:10:38.211Z,18.20
2019-05-11T06:13:08.547Z,17.40
2019-05-11T06:15:38.251Z,24.27
2019-05-11T06:18:07.856Z,22.63
2019-05-11T06:20:38.163Z,16.57
2019-05-11T06:23:08.544Z,19.63
2019-05-11T06:25:38.276Z,17.83
2019-05-11T06:28:08.583Z,16.40
2019-05-11T06:30:38.315Z,21.60
2019-05-11T06:33:07.930Z,18.83
2019-05-11T06:35:37.661Z,23.37
2019-05-11T06:38:07.958Z,25.53
2019-05-11T06:40:38.466Z,23.30
2019-05-11T06:43:08.881Z,21.97
2019-05-11T06:45:38.643Z,24.83
2019-05-11T06:48:09.015Z,22.37
2019-05-11T06:50:38.786Z,19.37
2019-05-11T06:53:09.028Z,21.23
2019-05-11T06:55:38.790Z,15.80
2019-05-11T06:58:08.524Z,17.47
2019-05-11T07:00:38.842Z,21.00
2019-05-11T07:03:08.564Z,19.30
2019-05-11T07:05:38.866Z,21.83
2019-05-11T07:08:08.798Z,19.47
2019-05-11T07:10:38.407Z,24.17
2019-05-11T07:13:08.737Z,17.90
2019-05-11T07:15:38.452Z,19.43
2019-05-11T07:18:08.764Z,21.77
2019-05-11T07:20:49.967Z,20.93
2019-05-11T07:23:09.895Z,21.43
2019-05-11T07:25:39.503Z,21.20
2019-05-11T07:28:09.201Z,21.40
2019-05-11T07:30:38.952Z,23.97
2019-05-11T07:33:09.301Z,24.00
2019-05-11T07:35:39.031Z,24.20
2019-05-11T07:38:09.321Z,25.10
2019-05-11T07:40:39.052Z,25.70
2019-05-11T07:43:09.939Z,23.77
2019-05-11T07:45:39.890Z,23.90
2019-05-11T07:48:09.492Z,25.10
2019-05-11T07:50:39.126Z,24.63
2019-05-11T07:53:08.737Z,26.83
2019-05-11T07:55:39.015Z,28.77
2019-05-11T07:58:09.132Z,27.03
2019-05-11T08:00:40.117Z,27.93
2019-05-11T08:03:09.914Z,27.30
2019-05-11T08:05:39.595Z,28.23
2019-05-11T08:08:09.238Z,24.93
2019-05-11T08:10:39.528Z,26.07
2019-05-11T08:13:09.381Z,21.97
2019-05-11T08:15:39.061Z,26.13
2019-05-11T08:18:09.398Z,26.40
2019-05-11T08:20:39.125Z,21.43
2019-05-11T08:23:09.552Z,21.47
2019-05-11T08:25:39.284Z,22.40
2019-05-11T08:28:11.874Z,21.87
2019-05-11T08:30:40.131Z,22.80
2019-05-11T08:33:10.406Z,23.77
2019-05-11T08:35:40.115Z,23.67
2019-05-11T08:38:10.397Z,22.67
2019-05-11T08:40:40.089Z,23.80
2019-05-11T08:43:09.675Z,21.03
2019-05-11T08:45:39.481Z,20.43
2019-05-11T08:48:09.267Z,16.13
2019-05-11T08:50:38.921Z,19.43
2019-05-11T08:53:08.784Z,14.17
2019-05-11T08:55:39.089Z,10.87
2019-05-11T08:58:08.864Z,12.93
2019-05-11T09:00:39.161Z,15.77
2019-05-11T09:03:08.888Z,8.27
2019-05-11T09:05:39.164Z,10.83
2019-05-11T09:08:09.602Z,7.97
2019-05-11T09:10:39.959Z,8.97
2019-05-11T09:13:09.680Z,10.07
2019-05-11T09:15:40.733Z,9.27
2019-05-11T09:18:10.635Z,13.80
2019-05-11T09:20:40.873Z,9.13
2019-05-11T09:23:10.569Z,10.27
2019-05-11T09:25:40.796Z,15.80
2019-05-11T09:28:10.593Z,8.73
2019-05-11T09:30:40.883Z,9.60
2019-05-11T09:33:10.679Z,8.23
2019-05-11T09:35:50.006Z,10.10
2019-05-11T09:38:11.718Z,8.83
2019-05-11T09:40:41.995Z,11.40
2019-05-11T09:43:12.400Z,8.90
2019-05-11T09:45:48.185Z,9.20
2019-05-11T09:48:13.316Z,8.33
2019-05-11T09:50:43.562Z,5.50
2019-05-11T09:53:13.239Z,7.43
2019-05-11T09:55:43.577Z,9.30
2019-05-11T09:58:13.910Z,8.77
2019-05-11T10:00:44.285Z,7.70
2019-05-11T10:03:13.972Z,9.20
2019-05-11T10:05:44.191Z,9.07
2019-05-11T10:08:14.549Z,11.30
2019-05-11T10:10:45.325Z,9.07
2019-05-11T10:13:15.734Z,7.80
2019-05-11T10:16:00.887Z,7.47
2019-05-11T10:18:18.706Z,9.50
2019-05-11T10:20:49.133Z,7.53
2019-05-11T10:23:20.249Z,8.97
2019-05-11T10:25:49.969Z,7.40
2019-05-11T10:28:20.236Z,8.03
2019-05-11T10:30:49.905Z,8.07
2019-05-11T10:33:20.139Z,11.77
2019-05-11T10:35:49.917Z,11.33
2019-05-11T10:38:20.222Z,7.73
2019-05-11T10:40:49.925Z,11.27
2019-05-11T10:43:20.212Z,10.23
2019-05-11T10:45:50.015Z,11.40
2019-05-11T10:48:20.359Z,8.17
2019-05-11T10:50:50.831Z,11.10
2019-05-11T10:53:21.226Z,9.90
2019-05-11T10:55:51.617Z,7.80
2019-05-11T10:58:21.345Z,8.77
2019-05-11T11:00:50.993Z,11.03
2019-05-11T11:03:20.721Z,7.30
2019-05-11T11:05:50.438Z,6.50
2019-05-11T11:08:20.831Z,8.07
2019-05-11T11:10:51.328Z,5.70
2019-05-11T11:13:21.790Z,5.30
2019-05-11T11:15:52.304Z,6.13
2019-05-11T11:18:22.081Z,5.00
2019-05-11T11:20:51.741Z,5.07
2019-05-11T11:23:21.450Z,2.27
2019-05-11T11:25:51.853Z,4.70
2019-05-11T11:28:21.594Z,3.00
2019-05-11T11:30:51.900Z,4.77
2019-05-11T11:33:21.587Z,2.60
2019-05-11T11:35:51.221Z,4.20
2019-05-11T11:38:20.937Z,3.73
2019-05-11T11:40:51.287Z,5.10
2019-05-11T11:43:21.026Z,3.97
2019-05-11T11:45:51.302Z,5.07
2019-05-11T11:48:21.006Z,8.67
2019-05-11T11:50:51.272Z,6.73
2019-05-11T11:53:21.026Z,4.40
2019-05-11T11:55:50.658Z,3.20
2019-05-11T11:58:23.760Z,3.63
2019-05-11T12:00:52.511Z,4.27
2019-05-11T12:03:22.632Z,3.90
2019-05-11T12:05:52.910Z,6.40
2019-05-11T12:08:23.133Z,5.00
2019-05-11T12:10:53.440Z,4.77
2019-05-11T12:13:26.401Z,3.87
2019-05-11T12:15:54.489Z,3.27
2019-05-11T12:18:24.220Z,2.70
2019-05-11T12:20:54.702Z,3.77
2019-05-11T12:23:28.515Z,2.07
2019-05-11T12:25:58.359Z,3.33
2019-05-11T12:28:28.059Z,2.00
2019-05-11T12:30:58.669Z,1.70
2019-05-11T12:33:29.466Z,2.73
2019-05-11T12:35:59.205Z,1.97
2019-05-11T12:38:29.983Z,2.47
2019-05-11T12:40:59.735Z,4.40
2019-05-11T12:43:30.374Z,1.53
2019-05-11T12:46:00.913Z,1.47
2019-05-11T12:48:31.519Z,1.63
2019-05-11T12:51:01.292Z,3.90
2019-05-11T12:53:31.815Z,2.83
2019-05-11T12:56:01.532Z,2.97
2019-05-11T12:58:32.004Z,1.47
2019-05-11T13:01:02.468Z,1.53
2019-05-11T13:03:32.180Z,1.63
2019-05-11T13:06:02.285Z,1.53
2019-05-11T13:08:32.658Z,2.30
2019-05-11T13:11:03.142Z,3.50
2019-05-11T13:13:33.707Z,1.63
2019-05-11T13:16:04.215Z,1.10
2019-05-11T13:18:34.135Z,1.17
2019-05-11T13:21:04.579Z,3.27
2019-05-11T13:23:34.673Z,3.40
2019-05-11T13:26:05.042Z,2.23
2019-05-11T13:28:34.769Z,1.87
2019-05-11T13:31:05.196Z,3.07
2019-05-11T13:33:34.913Z,3.27
2019-05-11T13:36:05.204Z,2.10
2019-05-11T13:38:34.989Z,2.37
2019-05-11T13:41:04.604Z,4.57
2019-05-11T13:43:34.282Z,2.20
2019-05-11T13:46:04.624Z,3.83
2019-05-11T13:48:34.363Z,2.43
2019-05-11T13:51:04.611Z,3.07
2019-05-11T13:53:34.313Z,7.57
2019-05-11T13:56:04.045Z,5.27
2019-05-11T13:58:34.479Z,7.13
2019-05-11T14:01:04.951Z,3.13
2019-05-11T14:03:34.744Z,3.43
2019-05-11T14:06:05.107Z,2.40
2019-05-11T14:08:34.919Z,3.20
2019-05-11T14:11:05.344Z,3.40
2019-05-11T14:13:35.863Z,3.00
2019-05-11T14:16:07.980Z,3.07
2019-05-11T14:18:38.809Z,3.45
2019-05-11T14:21:08.570Z,4.57
2019-05-11T14:23:38.977Z,2.90
2019-05-11T14:26:08.759Z,2.10
2019-05-11T14:28:39.068Z,2.17
2019-05-11T14:31:08.886Z,1.80
2019-05-11T14:33:38.669Z,2.03
2019-05-11T14:36:08.761Z,5.23
2019-05-11T14:38:39.035Z,2.63
2019-05-11T14:41:08.799Z,2.73
2019-05-11T14:43:39.110Z,2.40
2019-05-11T14:46:08.865Z,2.80
2019-05-11T14:48:39.331Z,2.50
2019-05-11T14:51:09.757Z,2.30
2019-05-11T14:53:40.118Z,2.87
2019-05-11T14:56:09.900Z,2.13
2019-05-11T14:58:40.309Z,1.87
2019-05-11T15:01:10.850Z,3.17
2019-05-11T15:03:41.441Z,1.93
2019-05-11T15:06:11.441Z,2.30
2019-05-11T15:08:41.256Z,2.10
2019-05-11T15:11:11.641Z,2.33
2019-05-11T15:13:41.581Z,4.33
2019-05-11T15:16:11.304Z,2.67
2019-05-11T15:18:42.274Z,2.47
2019-05-11T15:21:12.283Z,2.13
2019-05-11T15:23:42.004Z,2.50
2019-05-11T15:26:12.451Z,1.67
2019-05-11T15:28:42.183Z,2.30
2019-05-11T15:31:12.503Z,1.93
2019-05-11T15:33:42.937Z,2.50
2019-05-11T15:36:12.846Z,2.20
2019-05-11T15:38:42.641Z,2.80
2019-05-11T15:41:13.323Z,4.50
2019-05-11T15:43:43.697Z,4.77
2019-05-11T15:46:13.412Z,2.40
2019-05-11T15:48:56.744Z,3.10
2019-05-11T15:51:15.506Z,1.97
2019-05-11T15:53:47.643Z,3.30
2019-05-11T15:56:19.148Z,4.67
2019-05-11T15:58:48.992Z,3.40
2019-05-11T16:01:19.315Z,2.17
2019-05-11T16:03:50.184Z,2.70
2019-05-11T16:06:21.269Z,2.83
2019-05-11T16:08:50.985Z,2.00
2019-05-11T16:11:20.691Z,4.73
2019-05-11T16:13:50.398Z,3.37
2019-05-11T16:16:20.344Z,1.77
2019-05-11T16:18:50.970Z,2.77
2019-05-11T16:21:20.653Z,1.80
2019-05-11T16:23:50.323Z,2.83
2019-05-11T16:26:20.243Z,2.17
2019-05-11T16:28:49.922Z,3.20
2019-05-11T16:31:20.267Z,7.23
2019-05-11T16:33:49.963Z,2.97
2019-05-11T16:36:20.167Z,3.90
2019-05-11T16:38:49.860Z,2.53
2019-05-11T16:41:21.121Z,3.57
2019-05-11T16:43:51.007Z,7.13
2019-05-11T16:46:20.636Z,4.07
2019-05-11T16:48:50.326Z,2.90
2019-05-11T16:51:20.066Z,6.60
2019-05-11T16:53:49.728Z,2.80
2019-05-11T16:56:20.138Z,2.67
2019-05-11T16:58:49.806Z,5.10
2019-05-11T17:01:20.218Z,5.73
2019-05-11T17:03:49.908Z,2.73
2019-05-11T17:06:20.064Z,3.97
2019-05-11T17:08:49.742Z,2.17
2019-05-11T17:11:20.379Z,4.23
2019-05-11T17:13:50.196Z,3.77
2019-05-11T17:16:20.607Z,4.60
2019-05-11T17:18:50.329Z,6.30
2019-05-11T17:21:20.485Z,3.83
2019-05-11T17:23:50.082Z,3.00
2019-05-11T17:26:19.753Z,4.70
2019-05-11T17:28:49.389Z,5.13
2019-05-11T17:31:19.880Z,3.43
2019-05-11T17:33:49.725Z,4.07
2019-05-11T17:36:20.710Z,4.80
2019-05-11T17:38:50.335Z,2.37
2019-05-11T17:41:21.237Z,3.97
2019-05-11T17:43:50.966Z,2.00
2019-05-11T17:46:21.017Z,6.87
2019-05-11T17:48:50.640Z,3.47
2019-05-11T17:51:22.571Z,7.23
2019-05-11T17:53:51.554Z,4.50
2019-05-11T17:56:21.214Z,5.60
2019-05-11T17:58:51.759Z,3.67
2019-05-11T18:01:21.905Z,5.33
2019-05-11T18:03:51.585Z,2.50
2019-05-11T18:06:21.241Z,3.63
2019-05-11T18:08:51.213Z,2.23
2019-05-11T18:11:21.827Z,4.90
2019-05-11T18:13:51.541Z,3.90
2019-05-11T18:16:22.289Z,3.20
2019-05-11T18:18:52.840Z,2.60
2019-05-11T18:21:23.718Z,1.80
2019-05-11T18:23:54.089Z,3.27
2019-05-11T18:26:24.179Z,3.53
2019-05-11T18:28:53.825Z,3.97
2019-05-11T18:31:24.525Z,3.43
2019-05-11T18:33:55.000Z,3.70
2019-05-11T18:36:24.790Z,2.83
2019-05-11T18:38:54.582Z,3.87
2019-05-11T18:41:24.930Z,5.13
2019-05-11T18:43:55.751Z,3.80
2019-05-11T18:46:27.889Z,1.73
2019-05-11T18:48:57.311Z,3.90
2019-05-11T18:51:27.167Z,3.93
2019-05-11T18:53:58.570Z,6.80
2019-05-11T18:56:28.650Z,5.05
2019-05-11T18:58:58.442Z,4.83
2019-05-11T19:01:28.599Z,5.77
2019-05-11T19:04:00.119Z,5.07
2019-05-11T19:06:29.993Z,5.03
2019-05-11T19:08:59.658Z,5.87
2019-05-11T19:11:29.373Z,4.47
2019-05-11T19:13:59.117Z,5.67
2019-05-11T19:16:28.935Z,7.60
2019-05-11T19:18:59.229Z,6.40
2019-05-11T19:21:29.043Z,9.57
2019-05-11T19:23:59.403Z,8.47
2019-05-11T19:26:29.179Z,3.98
2019-05-11T19:29:00.714Z,5.20
2019-05-11T19:31:30.136Z,4.43
2019-05-11T19:34:00.477Z,2.93
2019-05-11T19:36:30.272Z,5.12
2019-05-11T19:38:59.997Z,7.10
2019-05-11T19:41:29.645Z,4.87
2019-05-11T19:43:59.340Z,6.80
2019-05-11T19:46:29.017Z,5.83
2019-05-11T19:48:58.598Z,5.60
2019-05-11T19:51:29.170Z,5.53
2019-05-11T19:53:59.063Z,6.40
2019-05-11T19:56:29.390Z,4.90
2019-05-11T19:58:59.206Z,7.30
2019-05-11T20:01:29.506Z,6.63
2019-05-11T20:04:01.549Z,7.63
2019-05-11T20:06:30.879Z,5.83
2019-05-11T20:09:00.679Z,6.33
2019-05-11T20:11:31.036Z,7.23
2019-05-11T20:14:00.747Z,9.10
2019-05-11T20:16:30.363Z,4.17
2019-05-11T20:19:00.001Z,5.20
2019-05-11T20:21:30.323Z,5.60
2019-05-11T20:24:00.063Z,3.97
2019-05-11T20:26:30.356Z,4.67
2019-05-11T20:29:00.170Z,5.53
2019-05-11T20:31:30.503Z,4.60
2019-05-11T20:34:00.206Z,3.77
2019-05-11T20:36:29.847Z,4.23
2019-05-11T20:38:59.483Z,5.97
2019-05-11T20:41:29.736Z,7.37
2019-05-11T20:43:59.436Z,4.83
2019-05-11T20:46:29.697Z,4.40
2019-05-11T20:48:59.421Z,4.67
2019-05-11T20:51:36.528Z,6.97
2019-05-11T20:54:01.063Z,7.63
2019-05-11T20:56:31.606Z,6.83
2019-05-11T20:59:01.482Z,7.27
2019-05-11T21:01:31.744Z,7.50
2019-05-11T21:04:02.407Z,6.87
2019-05-11T21:06:32.110Z,4.80
2019-05-11T21:09:02.855Z,9.47
2019-05-11T21:11:33.245Z,6.10
2019-05-11T21:14:04.000Z,4.73
2019-05-11T21:16:34.554Z,8.57
2019-05-11T21:19:04.300Z,5.83
2019-05-11T21:21:46.266Z,7.37
2019-05-11T21:24:08.364Z,7.63
2019-05-11T21:26:38.590Z,5.63
2019-05-11T21:29:08.692Z,8.97
2019-05-11T21:31:40.661Z,5.90
2019-05-11T21:34:09.701Z,7.27
2019-05-11T21:36:39.394Z,6.33
2019-05-11T21:39:09.782Z,6.83
2019-05-11T21:41:39.639Z,7.03
2019-05-11T21:44:10.022Z,6.97
2019-05-11T21:46:39.797Z,4.83
2019-05-11T21:49:09.508Z,7.40
2019-05-11T21:51:39.807Z,4.40
2019-05-11T21:54:09.730Z,5.43
2019-05-11T21:56:40.900Z,5.07
2019-05-11T21:59:11.411Z,5.47
2019-05-11T22:01:41.330Z,5.03
2019-05-11T22:04:11.636Z,6.97
2019-05-11T22:06:41.514Z,4.97
2019-05-11T22:09:11.098Z,16.20
2019-05-11T22:11:40.733Z,8.33
2019-05-11T22:14:10.591Z,9.17
2019-05-11T22:16:40.184Z,7.20
2019-05-11T22:19:10.951Z,9.67
2019-05-11T22:21:41.265Z,9.83
2019-05-11T22:24:11.681Z,8.70
2019-05-11T22:26:41.426Z,9.73
2019-05-11T22:29:11.103Z,8.40
2019-05-11T22:31:42.096Z,8.03
2019-05-11T22:34:12.985Z,8.03
2019-05-11T22:36:43.418Z,5.93
2019-05-11T22:39:17.454Z,7.97
2019-05-11T22:41:48.187Z,9.87
2019-05-11T22:44:18.641Z,11.10
2019-05-11T22:46:48.448Z,12.47
2019-05-11T22:49:18.060Z,10.30
2019-05-11T22:51:47.703Z,11.53
2019-05-11T22:54:18.662Z,8.10
2019-05-11T22:56:49.125Z,7.80
2019-05-11T22:59:18.858Z,12.23
2019-05-11T23:01:49.169Z,10.67
2019-05-11T23:04:19.937Z,9.60
2019-05-11T23:06:50.243Z,10.37
2019-05-11T23:09:21.567Z,5.27
2019-05-11T23:11:51.925Z,6.77
2019-05-11T23:14:21.591Z,7.93
2019-05-11T23:16:51.847Z,6.53
2019-05-11T23:19:22.221Z,9.47
2019-05-11T23:21:51.926Z,7.67
2019-05-11T23:24:22.189Z,8.43
2019-05-11T23:26:52.530Z,7.50
2019-05-11T23:29:22.923Z,7.53
2019-05-11T23:31:52.682Z,10.20
2019-05-11T23:34:22.927Z,5.80
2019-05-11T23:36:52.714Z,8.03
2019-05-11T23:39:23.002Z,8.00
2019-05-11T23:41:52.740Z,6.97
2019-05-11T23:44:23.088Z,6.20
2019-05-11T23:46:52.826Z,6.77
2019-05-11T23:49:23.111Z,5.17
2019-05-11T23:51:52.793Z,4.90
2019-05-11T23:54:23.107Z,7.50
2019-05-11T23:56:53.433Z,9.03
2019-05-11T23:59:23.145Z,5.37
